createdAt,value
2018-03-20T00:01:29.626Z,14.70
2018-03-20T00:04:02.791Z,18.30
2018-03-20T00:06:33.131Z,23.20
2018-03-20T00:09:05.879Z,21.20
2018-03-20T00:11:36.168Z,24.60
2018-03-20T00:14:06.620Z,12.70
2018-03-20T00:16:35.980Z,15.60
2018-03-20T00:19:09.136Z,21.87
2018-03-20T00:21:39.339Z,21.63
2018-03-20T00:24:12.404Z,21.10
2018-03-20T00:26:42.749Z,19.30
2018-03-20T00:29:15.683Z,17.33
2018-03-20T00:31:46.012Z,11.40
2018-03-20T00:34:17.249Z,19.13
2018-03-20T00:36:47.637Z,37.13
2018-03-20T00:39:19.210Z,29.33
2018-03-20T00:41:49.477Z,19.83
2018-03-20T00:44:20.972Z,21.00
2018-03-20T00:46:51.859Z,17.97
2018-03-20T00:49:24.716Z,9.27
2018-03-20T00:51:55.521Z,17.37
2018-03-20T00:54:26.072Z,10.17
2018-03-20T00:56:56.498Z,30.00
2018-03-20T00:59:29.198Z,25.10
2018-03-20T01:01:58.680Z,20.10
2018-03-20T01:04:30.959Z,24.13
2018-03-20T01:07:01.309Z,25.10
2018-03-20T01:09:33.239Z,25.57
2018-03-20T01:12:04.040Z,15.27
2018-03-20T01:14:37.704Z,9.57
2018-03-20T01:17:08.347Z,10.47
2018-03-20T01:19:38.664Z,11.20
2018-03-20T01:22:09.290Z,15.23
2018-03-20T01:24:42.493Z,11.57
2018-03-20T01:27:13.044Z,12.33
2018-03-20T01:29:46.548Z,12.60
2018-03-20T01:32:17.329Z,23.53
2018-03-20T01:34:47.767Z,14.30
2018-03-20T01:37:17.821Z,14.00
2018-03-20T01:39:51.512Z,23.63
2018-03-20T01:42:21.618Z,13.63
2018-03-20T01:44:55.166Z,16.63
2018-03-20T01:47:26.387Z,19.00
2018-03-20T01:49:56.672Z,18.03
2018-03-20T01:52:27.924Z,11.10
2018-03-20T01:55:01.374Z,12.27
2018-03-20T01:57:31.622Z,19.20
2018-03-20T02:00:04.338Z,12.10
2018-03-20T02:02:34.446Z,19.37
2018-03-20T02:05:05.967Z,14.23
2018-03-20T02:07:36.968Z,14.17
2018-03-20T02:10:08.196Z,16.20
2018-03-20T02:12:41.073Z,10.67
2018-03-20T02:15:13.525Z,21.20
2018-03-20T02:17:45.033Z,11.40
2018-03-20T02:20:15.945Z,16.67
2018-03-20T02:22:47.329Z,14.50
2018-03-20T02:25:18.147Z,17.17
2018-03-20T02:27:49.104Z,14.93
2018-03-20T02:30:20.557Z,12.97
2018-03-20T02:32:50.537Z,9.33
2018-03-20T02:35:22.345Z,11.60
2018-03-20T02:37:53.196Z,19.57
2018-03-20T02:40:23.706Z,16.47
2018-03-20T02:42:54.334Z,15.13
2018-03-20T02:45:26.291Z,14.90
2018-03-20T02:47:57.316Z,14.97
2018-03-20T02:50:27.594Z,12.20
2018-03-20T02:52:57.675Z,12.07
2018-03-20T02:55:28.509Z,14.60
2018-03-20T02:57:59.370Z,16.83
2018-03-20T03:00:33.006Z,18.83
2018-03-20T03:03:03.515Z,10.70
2018-03-20T03:05:36.666Z,17.10
2018-03-20T03:08:07.501Z,22.77
2018-03-20T03:10:39.333Z,17.20
2018-03-20T03:13:10.548Z,16.43
2018-03-20T03:15:42.219Z,17.10
2018-03-20T03:22:46.082Z,11.67
2018-03-20T03:25:16.159Z,12.53
2018-03-20T03:27:51.491Z,11.27
2018-03-20T03:30:25.585Z,12.87
2018-03-20T03:32:55.902Z,17.17
2018-03-20T03:35:26.531Z,22.63
2018-03-20T03:37:58.051Z,11.17
2018-03-20T03:40:29.374Z,12.13
2018-03-20T03:42:59.544Z,16.20
2018-03-20T03:45:30.687Z,14.23
2018-03-20T03:48:01.702Z,10.97
2018-03-20T03:50:33.724Z,16.90
2018-03-20T03:53:06.375Z,14.03
2018-03-20T03:55:37.348Z,14.13
2018-03-20T03:58:10.026Z,12.60
2018-03-20T04:00:40.185Z,13.43
2018-03-20T04:03:12.273Z,12.50
2018-03-20T04:05:43.714Z,11.40
2018-03-20T04:08:14.429Z,8.00
2018-03-20T04:10:45.270Z,13.67
2018-03-20T04:13:16.739Z,14.37
2018-03-20T04:15:48.073Z,8.60
2018-03-20T04:18:18.490Z,13.27
2018-03-20T04:20:48.724Z,13.47
2018-03-20T04:23:21.685Z,15.37
2018-03-20T04:25:53.090Z,12.33
2018-03-20T04:28:23.222Z,8.10
2018-03-20T04:30:53.960Z,18.77
2018-03-20T04:33:25.525Z,12.23
2018-03-20T04:35:55.998Z,11.17
2018-03-20T04:38:27.318Z,17.57
2018-03-20T04:40:57.676Z,12.13
2018-03-20T04:43:29.581Z,10.97
2018-03-20T04:45:59.940Z,12.73
2018-03-20T04:48:33.938Z,18.00
2018-03-20T04:51:04.070Z,17.33
2018-03-20T04:53:35.007Z,11.33
2018-03-20T04:56:05.226Z,13.13
2018-03-20T04:58:38.316Z,11.47
2018-03-20T05:01:08.189Z,14.63
2018-03-20T05:03:39.369Z,10.83
2018-03-20T05:06:09.705Z,11.90
2018-03-20T05:08:43.048Z,8.90
2018-03-20T05:11:14.282Z,26.03
2018-03-20T05:13:47.299Z,12.67
2018-03-20T05:16:18.241Z,14.53
2018-03-20T05:18:51.829Z,11.43
2018-03-20T05:21:23.468Z,12.73
2018-03-20T05:23:53.586Z,12.87
2018-03-20T05:26:23.503Z,10.93
2018-03-20T05:28:56.638Z,11.73
2018-03-20T05:31:26.722Z,13.90
2018-03-20T05:33:58.912Z,12.40
2018-03-20T05:36:30.007Z,12.43
2018-03-20T05:39:01.115Z,13.47
2018-03-20T05:41:31.563Z,12.67
2018-03-20T05:44:04.125Z,14.77
2018-03-20T05:46:36.733Z,13.03
2018-03-20T05:49:06.667Z,14.73
2018-03-20T05:51:36.556Z,13.50
2018-03-20T05:54:10.056Z,15.23
2018-03-20T05:56:40.725Z,15.57
2018-03-20T05:59:14.323Z,12.97
2018-03-20T06:01:45.224Z,16.87
2018-03-20T06:04:15.805Z,18.07
2018-03-20T06:06:46.333Z,13.07
2018-03-20T06:09:18.120Z,16.53
2018-03-20T06:11:48.775Z,15.57
2018-03-20T06:14:20.264Z,17.17
2018-03-20T06:16:56.815Z,12.53
2018-03-20T06:19:27.360Z,13.50
2018-03-20T06:21:58.043Z,24.73
2018-03-20T06:24:28.420Z,13.07
2018-03-20T06:26:57.972Z,16.00
2018-03-20T06:29:28.723Z,13.63
2018-03-20T06:31:58.332Z,18.23
2018-03-20T06:34:29.193Z,14.13
2018-03-20T06:36:59.203Z,16.00
2018-03-20T06:39:30.684Z,14.57
2018-03-20T06:42:01.185Z,16.23
2018-03-20T06:44:33.446Z,15.87
2018-03-20T06:47:04.219Z,18.67
2018-03-20T06:49:35.658Z,20.33
2018-03-20T06:52:05.251Z,14.97
2018-03-20T06:54:37.982Z,21.07
2018-03-20T06:57:08.269Z,24.57
2018-03-20T06:59:40.423Z,22.17
2018-03-20T07:02:10.902Z,21.70
2018-03-20T07:04:43.344Z,16.37
2018-03-20T07:07:12.903Z,26.47
2018-03-20T07:09:46.115Z,25.23
2018-03-20T07:12:15.533Z,22.20
2018-03-20T07:14:50.585Z,21.00
2018-03-20T07:17:20.457Z,21.27
2018-03-20T07:19:50.828Z,23.80
2018-03-20T07:22:20.513Z,21.03
2018-03-20T07:24:54.108Z,22.90
2018-03-20T07:27:24.537Z,22.27
2018-03-20T07:29:57.130Z,23.67
2018-03-20T07:32:28.206Z,22.87
2018-03-20T07:35:01.735Z,19.80
2018-03-20T07:37:32.933Z,22.93
2018-03-20T07:40:03.860Z,23.77
2018-03-20T07:42:33.277Z,19.10
2018-03-20T07:45:05.230Z,26.53
2018-03-20T07:47:35.520Z,22.53
2018-03-20T07:50:09.576Z,19.27
2018-03-20T07:52:40.568Z,22.53
2018-03-20T07:55:13.551Z,20.80
2018-03-20T07:57:43.646Z,23.00
2018-03-20T08:00:15.597Z,19.67
2018-03-20T08:02:45.728Z,19.53
2018-03-20T08:05:18.514Z,22.40
2018-03-20T08:07:48.430Z,19.83
2018-03-20T08:10:21.404Z,25.43
2018-03-20T08:12:51.708Z,22.70
2018-03-20T08:15:22.633Z,21.43
2018-03-20T08:17:53.211Z,26.83
2018-03-20T08:20:24.803Z,24.90
2018-03-20T08:22:54.588Z,24.37
2018-03-20T08:25:26.810Z,28.73
2018-03-20T08:27:56.816Z,24.57
2018-03-20T08:30:29.096Z,32.27
2018-03-20T08:32:59.720Z,24.00
2018-03-20T08:35:31.432Z,41.97
2018-03-20T08:38:00.778Z,30.60
2018-03-20T08:40:32.892Z,29.73
2018-03-20T08:43:02.815Z,27.50
2018-03-20T08:45:36.324Z,22.60
2018-03-20T08:48:06.013Z,24.30
2018-03-20T08:50:40.188Z,24.53
2018-03-20T08:53:10.276Z,27.70
2018-03-20T08:55:52.588Z,27.17
2018-03-20T08:58:22.616Z,34.87
2018-03-20T09:00:52.701Z,28.37
2018-03-20T09:03:23.390Z,32.90
2018-03-20T09:05:52.722Z,29.13
2018-03-20T09:08:23.057Z,27.23
2018-03-20T09:10:53.775Z,26.10
2018-03-20T09:13:23.065Z,27.03
2018-03-20T09:15:54.403Z,26.37
2018-03-20T09:18:24.146Z,30.37
2018-03-20T09:21:06.468Z,29.53
2018-03-20T09:23:36.656Z,32.20
2018-03-20T09:26:06.751Z,29.73
2018-03-20T09:28:36.450Z,27.87
2018-03-20T09:31:06.768Z,27.37
2018-03-20T09:33:36.889Z,33.97
2018-03-20T09:36:07.187Z,24.50
2018-03-20T09:38:36.942Z,27.57
2018-03-20T09:41:10.436Z,29.30
2018-03-20T09:43:42.153Z,27.73
2018-03-20T09:46:13.365Z,24.73
2018-03-20T09:48:42.862Z,24.20
2018-03-20T09:51:14.386Z,20.73
2018-03-20T09:53:44.579Z,20.27
2018-03-20T09:56:16.528Z,23.77
2018-03-20T09:58:46.538Z,20.57
2018-03-20T10:01:19.235Z,24.87
2018-03-20T10:03:49.045Z,20.77
2018-03-20T10:06:22.193Z,20.63
2018-03-20T10:08:52.402Z,26.47
2018-03-20T10:11:25.053Z,27.10
2018-03-20T10:13:55.109Z,19.33
2018-03-20T10:16:26.237Z,17.67
2018-03-20T10:18:55.548Z,23.20
2018-03-20T10:21:28.618Z,18.13
2018-03-20T10:23:58.800Z,17.50
2018-03-20T10:26:30.408Z,23.87
2018-03-20T10:29:00.069Z,21.33
2018-03-20T10:31:33.725Z,20.10
2018-03-20T10:34:03.053Z,22.27
2018-03-20T10:36:36.752Z,22.77
2018-03-20T10:39:06.544Z,21.50
2018-03-20T10:41:39.830Z,30.83
2018-03-20T10:44:09.274Z,18.07
2018-03-20T10:46:41.795Z,24.93
2018-03-20T10:49:11.025Z,20.77
2018-03-20T10:51:53.456Z,19.10
2018-03-20T10:54:23.823Z,19.87
2018-03-20T10:56:53.785Z,16.27
2018-03-20T10:59:23.815Z,15.93
2018-03-20T11:01:55.603Z,17.33
2018-03-20T11:04:26.005Z,13.73
2018-03-20T11:06:55.612Z,19.67
2018-03-20T11:09:25.618Z,15.17
2018-03-20T11:11:56.453Z,19.07
2018-03-20T11:14:26.052Z,12.30
2018-03-20T11:16:59.502Z,13.50
2018-03-20T11:19:29.392Z,13.63
2018-03-20T11:22:02.856Z,13.87
2018-03-20T11:24:33.383Z,8.87
2018-03-20T11:27:06.123Z,15.53
2018-03-20T11:29:35.432Z,16.47
2018-03-20T11:32:08.467Z,9.80
2018-03-20T11:34:37.828Z,10.10
2018-03-20T11:37:20.881Z,10.30
2018-03-20T11:39:51.212Z,7.90
2018-03-20T11:42:21.533Z,8.47
2018-03-20T11:44:51.217Z,8.17
2018-03-20T11:47:21.889Z,7.73
2018-03-20T11:49:52.138Z,6.40
2018-03-20T11:52:23.548Z,9.53
2018-03-20T11:54:53.358Z,7.20
2018-03-20T11:57:23.300Z,4.23
2018-03-20T11:59:53.736Z,4.07
2018-03-20T12:02:24.280Z,8.50
2018-03-20T12:04:53.680Z,4.40
2018-03-20T12:07:26.795Z,5.43
2018-03-20T12:09:57.230Z,10.37
2018-03-20T12:12:27.397Z,6.17
2018-03-20T12:14:58.218Z,5.07
2018-03-20T12:17:30.243Z,4.87
2018-03-20T12:20:00.819Z,8.53
2018-03-20T12:22:32.853Z,3.43
2018-03-20T12:25:03.519Z,3.67
2018-03-20T12:27:35.413Z,2.87
2018-03-20T12:30:05.245Z,7.87
2018-03-20T12:32:37.151Z,5.77
2018-03-20T12:35:07.743Z,6.20
2018-03-20T12:37:38.856Z,3.20
2018-03-20T12:40:08.139Z,5.70
2018-03-20T12:42:42.055Z,4.57
2018-03-20T12:45:12.912Z,3.30
2018-03-20T12:47:44.398Z,4.50
2018-03-20T12:50:14.473Z,4.63
2018-03-20T12:52:47.320Z,7.83
2018-03-20T12:55:17.793Z,7.73
2018-03-20T12:57:48.909Z,8.03
2018-03-20T13:00:18.238Z,4.93
2018-03-20T13:02:52.324Z,8.07
2018-03-20T13:05:22.826Z,10.20
2018-03-20T13:07:54.233Z,6.83
2018-03-20T13:10:24.806Z,6.37
2018-03-20T13:12:58.084Z,6.20
2018-03-20T13:15:28.195Z,7.03
2018-03-20T13:18:00.349Z,5.80
2018-03-20T13:20:29.620Z,6.87
2018-03-20T13:23:11.866Z,7.17
2018-03-20T13:25:42.252Z,6.27
2018-03-20T13:28:13.033Z,5.13
2018-03-20T13:30:42.649Z,9.63
2018-03-20T13:33:13.373Z,4.73
2018-03-20T13:35:43.820Z,7.87
2018-03-20T13:38:14.445Z,6.07
2018-03-20T13:40:44.142Z,2.80
2018-03-20T13:43:16.318Z,3.80
2018-03-20T13:45:46.545Z,12.50
2018-03-20T13:48:17.566Z,2.57
2018-03-20T13:50:46.807Z,5.00
2018-03-20T13:53:20.862Z,4.17
2018-03-20T13:55:50.645Z,2.53
2018-03-20T13:58:22.699Z,6.43
2018-03-20T14:00:52.185Z,3.17
2018-03-20T14:03:25.694Z,2.03
2018-03-20T14:05:55.008Z,4.40
2018-03-20T14:08:26.185Z,5.63
2018-03-20T14:10:55.996Z,7.20
2018-03-20T14:13:29.495Z,5.13
2018-03-20T14:16:00.590Z,1.97
2018-03-20T14:18:31.304Z,5.07
2018-03-20T14:21:01.422Z,4.87
2018-03-20T14:23:33.310Z,2.67
2018-03-20T14:26:03.363Z,3.10
2018-03-20T14:28:36.706Z,4.47
2018-03-20T14:31:06.035Z,7.20
2018-03-20T14:33:38.040Z,5.43
2018-03-20T14:36:08.123Z,2.03
2018-03-20T14:38:41.121Z,4.47
2018-03-20T14:41:10.786Z,3.23
2018-03-20T14:43:44.094Z,4.63
2018-03-20T14:46:13.483Z,4.93
2018-03-20T14:48:47.972Z,7.40
2018-03-20T14:51:20.813Z,12.67
2018-03-20T14:53:50.074Z,3.63
2018-03-20T14:56:19.830Z,5.77
2018-03-20T14:58:53.078Z,3.27
2018-03-20T15:01:24.552Z,4.50
2018-03-20T15:03:56.953Z,3.03
2018-03-20T15:06:26.236Z,6.50
2018-03-20T15:09:08.889Z,3.60
2018-03-20T15:11:38.320Z,7.53
2018-03-20T15:14:08.453Z,4.67
2018-03-20T15:16:39.913Z,7.70
2018-03-20T15:19:10.045Z,4.30
2018-03-20T15:21:39.832Z,13.63
2018-03-20T15:24:11.728Z,7.87
2018-03-20T15:26:41.074Z,4.93
2018-03-20T15:29:23.446Z,10.90
2018-03-20T15:31:53.518Z,9.20
2018-03-20T15:34:23.043Z,7.80
2018-03-20T15:36:53.118Z,6.13
2018-03-20T15:39:24.875Z,3.57
2018-03-20T15:41:54.431Z,3.40
2018-03-20T15:44:25.019Z,2.83
2018-03-20T15:46:56.368Z,1.83
2018-03-20T15:49:26.576Z,2.10
2018-03-20T15:51:56.715Z,5.90
2018-03-20T15:54:26.252Z,3.17
2018-03-20T15:56:55.720Z,3.30
2018-03-20T15:59:29.575Z,3.37
2018-03-20T16:01:59.615Z,4.63
2018-03-20T16:04:31.650Z,4.27
2018-03-20T16:07:02.244Z,6.27
2018-03-20T16:09:33.986Z,7.17
2018-03-20T16:12:03.930Z,3.20
2018-03-20T16:14:38.028Z,4.20
2018-03-20T16:17:09.208Z,6.33
2018-03-20T16:19:38.644Z,6.57
2018-03-20T16:22:08.589Z,5.30
2018-03-20T16:24:40.828Z,4.77
2018-03-20T16:27:11.000Z,2.77
2018-03-20T16:29:42.951Z,2.10
2018-03-20T16:32:13.532Z,1.83
2018-03-20T16:34:46.650Z,5.67
2018-03-20T16:37:16.138Z,5.80
2018-03-20T16:39:48.538Z,8.07
2018-03-20T16:42:19.043Z,5.27
2018-03-20T16:44:50.323Z,7.10
2018-03-20T16:47:21.232Z,5.47
2018-03-20T16:49:54.099Z,5.70
2018-03-20T16:52:24.573Z,6.53
2018-03-20T16:54:56.580Z,5.37
2018-03-20T16:57:26.472Z,8.13
2018-03-20T17:00:00.506Z,6.20
2018-03-20T17:02:30.923Z,7.97
2018-03-20T17:05:03.352Z,3.47
2018-03-20T17:07:34.212Z,8.00
2018-03-20T17:10:05.172Z,5.47
2018-03-20T17:12:34.758Z,6.37
2018-03-20T17:15:08.361Z,9.17
2018-03-20T17:17:39.381Z,7.23
2018-03-20T17:20:12.841Z,7.40
2018-03-20T17:22:44.233Z,6.63
2018-03-20T17:25:15.314Z,11.87
2018-03-20T17:27:45.270Z,5.77
2018-03-20T17:30:17.178Z,9.07
2018-03-20T17:32:47.287Z,9.83
2018-03-20T17:35:22.804Z,13.37
2018-03-20T17:37:54.493Z,10.33
2018-03-20T17:40:25.190Z,12.23
2018-03-20T17:42:55.879Z,8.10
2018-03-20T17:45:25.883Z,9.87
2018-03-20T17:47:57.133Z,7.03
2018-03-20T17:50:29.093Z,5.53
2018-03-20T17:52:58.805Z,15.50
2018-03-20T17:55:29.147Z,6.37
2018-03-20T17:57:59.541Z,4.93
2018-03-20T18:00:32.032Z,9.33
2018-03-20T18:03:02.445Z,6.00
2018-03-20T18:05:34.036Z,9.90
2018-03-20T18:08:04.970Z,8.63
2018-03-20T18:10:36.818Z,4.60
2018-03-20T18:13:08.496Z,8.33
2018-03-20T18:15:38.924Z,7.23
2018-03-20T18:18:09.709Z,6.57
2018-03-20T18:20:42.141Z,7.03
2018-03-20T18:23:12.493Z,6.57
2018-03-20T18:25:45.886Z,8.93
2018-03-20T18:28:16.293Z,5.57
2018-03-20T18:30:47.965Z,12.63
2018-03-20T18:33:22.777Z,6.70
2018-03-20T18:35:53.237Z,4.97
2018-03-20T18:38:25.044Z,8.30
2018-03-20T18:40:55.046Z,5.90
2018-03-20T18:56:30.236Z,13.63
2018-03-20T18:59:03.239Z,10.13
2018-03-20T19:01:34.247Z,12.43
2018-03-20T19:04:05.784Z,9.87
2018-03-20T19:06:36.341Z,9.17
2018-03-20T19:09:10.101Z,9.97
2018-03-20T19:11:40.784Z,5.87
2018-03-20T19:14:13.243Z,5.23
2018-03-20T19:16:43.692Z,7.67
2018-03-20T19:19:14.134Z,2.73
2018-03-20T19:21:44.400Z,10.77
2018-03-20T19:24:17.686Z,8.17
2018-03-20T19:26:48.479Z,8.33
2018-03-20T19:29:19.239Z,11.70
2018-03-20T19:31:49.584Z,8.70
2018-03-20T19:34:21.426Z,8.63
2018-03-20T19:36:51.378Z,7.97
2018-03-20T19:39:23.625Z,6.93
2018-03-20T19:41:54.799Z,10.20
2018-03-20T19:44:25.594Z,7.17
2018-03-20T19:46:56.497Z,5.20
2018-03-20T19:49:27.118Z,5.17
2018-03-20T19:51:57.081Z,4.60
2018-03-20T19:54:30.660Z,9.03
2018-03-20T19:57:02.448Z,4.97
2018-03-20T19:59:32.970Z,7.63
2018-03-20T20:02:03.911Z,11.67
2018-03-20T20:04:35.065Z,6.10
2018-03-20T20:07:05.876Z,9.57
2018-03-20T20:09:35.996Z,6.63
2018-03-20T20:12:07.417Z,8.93
2018-03-20T20:14:38.991Z,8.20
2018-03-20T20:17:09.724Z,5.40
2018-03-20T20:19:43.073Z,7.43
2018-03-20T20:22:13.804Z,6.53
2018-03-20T20:24:44.461Z,8.17
2018-03-20T20:27:15.737Z,2.23
2018-03-20T20:29:49.056Z,5.23
2018-03-20T20:32:19.596Z,3.20
2018-03-20T20:34:52.410Z,4.53
2018-03-20T20:37:24.255Z,6.63
2018-03-20T20:39:54.185Z,2.83
2018-03-20T20:42:24.411Z,4.77
2018-03-20T20:44:57.401Z,2.47
2018-03-20T20:47:29.318Z,5.10
2018-03-20T20:49:59.918Z,5.93
2018-03-20T20:52:29.877Z,2.67
2018-03-20T20:55:04.310Z,4.87
2018-03-20T20:57:34.143Z,4.63
2018-03-20T21:00:08.062Z,5.20
2018-03-20T21:02:38.698Z,5.90
2018-03-20T21:05:11.996Z,3.37
2018-03-20T21:07:41.880Z,4.20
2018-03-20T21:10:15.719Z,2.87
2018-03-20T21:12:46.066Z,10.63
2018-03-20T21:15:17.840Z,7.27
2018-03-20T21:17:47.780Z,5.63
2018-03-20T21:20:20.131Z,5.73
2018-03-20T21:22:49.886Z,5.93
2018-03-20T21:25:21.925Z,5.20
2018-03-20T21:27:53.061Z,2.70
2018-03-20T21:30:24.071Z,3.43
2018-03-20T21:32:54.378Z,4.07
2018-03-20T21:35:27.268Z,7.53
2018-03-20T21:37:57.637Z,4.90
2018-03-20T21:40:31.796Z,11.30
2018-03-20T21:43:01.877Z,10.40
2018-03-20T21:45:35.884Z,6.03
2018-03-20T21:48:05.620Z,3.93
2018-03-20T21:50:35.659Z,4.30
2018-03-20T21:53:05.396Z,5.13
2018-03-20T21:55:46.822Z,2.83
2018-03-20T21:58:16.918Z,3.60
2018-03-20T22:00:46.682Z,4.67
2018-03-20T22:03:15.974Z,3.93
2018-03-20T22:05:46.632Z,3.23
2018-03-20T22:08:17.545Z,7.07
2018-03-20T22:10:48.027Z,3.77
2018-03-20T22:13:18.792Z,6.97
2018-03-20T22:15:50.050Z,4.20
2018-03-20T22:18:20.540Z,2.70
2018-03-20T22:20:52.984Z,4.53
2018-03-20T22:23:23.532Z,3.30
2018-03-20T22:25:56.591Z,3.47
2018-03-20T22:28:26.411Z,5.67
2018-03-20T22:31:07.971Z,6.30
2018-03-20T22:33:39.428Z,7.00
2018-03-20T22:36:09.706Z,8.27
2018-03-20T22:38:40.326Z,5.50
2018-03-20T22:41:09.648Z,3.97
2018-03-20T22:43:39.785Z,6.90
2018-03-20T22:46:12.620Z,14.07
2018-03-20T22:48:43.380Z,4.90
2018-03-20T22:51:13.749Z,7.70
2018-03-20T22:53:43.525Z,7.10
2018-03-20T22:56:17.218Z,9.67
2018-03-20T22:58:47.480Z,6.40
2018-03-20T23:01:18.439Z,8.93
2018-03-20T23:03:49.276Z,8.17
2018-03-20T23:06:23.092Z,8.97
2018-03-20T23:08:53.329Z,7.70
2018-03-20T23:11:23.714Z,11.60
2018-03-20T23:13:54.288Z,10.20
2018-03-20T23:16:23.858Z,5.30
2018-03-20T23:18:54.489Z,12.23
2018-03-20T23:21:37.300Z,6.83
2018-03-20T23:24:06.702Z,4.77
2018-03-20T23:26:36.243Z,9.47
2018-03-20T23:29:06.131Z,9.27
2018-03-20T23:31:36.366Z,14.43
2018-03-20T23:34:05.886Z,10.10
2018-03-20T23:36:36.487Z,9.23
2018-03-20T23:39:06.213Z,7.83
2018-03-20T23:41:39.239Z,7.50
2018-03-20T23:44:09.369Z,11.27
2018-03-20T23:46:40.927Z,7.33
2018-03-20T23:49:10.354Z,8.07
2018-03-20T23:51:44.824Z,7.17
2018-03-20T23:54:14.901Z,8.03
2018-03-20T23:56:47.542Z,9.73
2018-03-20T23:59:16.747Z,7.70
